createdAt,value
2022-09-11T00:12:44.552Z,16.7
2022-09-11T00:27:14.219Z,16.7
2022-09-11T00:41:43.925Z,16.7
2022-09-11T00:56:13.700Z,16.8
2022-09-11T01:10:43.650Z,16.6
2022-09-11T01:25:14.028Z,16.7
2022-09-11T01:39:43.054Z,16.5
2022-09-11T01:54:12.486Z,16.5
2022-09-11T02:08:42.212Z,16.7
2022-09-11T02:23:11.845Z,16.6
2022-09-11T02:37:40.985Z,16.8
2022-09-11T02:52:10.941Z,16.8
2022-09-11T03:06:41.104Z,16.9
2022-09-11T03:21:09.507Z,16.8
2022-09-11T03:35:38.992Z,16.6
2022-09-11T03:50:08.038Z,16.7
2022-09-11T04:04:37.716Z,16.9
2022-09-11T04:19:07.628Z,16.7
2022-09-11T04:33:37.190Z,16.8
2022-09-11T04:48:05.486Z,16.9
2022-09-11T05:02:35.359Z,16.8
2022-09-11T05:17:04.695Z,17
2022-09-11T05:31:33.155Z,16.9
2022-09-11T05:46:01.979Z,17.1
2022-09-11T06:00:30.608Z,17.1
2022-09-11T06:15:00.397Z,17.4
2022-09-11T06:29:29.768Z,17.1
2022-09-11T06:43:59.410Z,17.4
2022-09-11T06:58:29.096Z,17.6
2022-09-11T07:13:03.769Z,17.8
2022-09-11T07:27:33.668Z,17.7
2022-09-11T07:42:01.788Z,17.7
2022-09-11T07:56:28.736Z,17.1
2022-09-11T08:10:59.589Z,16.8
2022-09-11T08:25:33.426Z,17.3
2022-09-11T08:39:58.648Z,17.8
2022-09-11T08:54:24.320Z,18.1
2022-09-11T09:08:56.306Z,17.8
2022-09-11T09:23:26.300Z,17.4
2022-09-11T09:37:51.733Z,17.4
2022-09-11T09:52:21.851Z,17.5
2022-09-11T10:06:56.160Z,16.7
2022-09-11T10:21:21.444Z,17
2022-09-11T10:35:47.040Z,17.1
2022-09-11T10:50:17.118Z,17.4
2022-09-11T11:04:45.637Z,17.3
2022-09-11T11:19:15.609Z,16.4
2022-09-11T11:33:44.621Z,16.2
2022-09-11T11:48:13.764Z,16
2022-09-11T12:02:42.698Z,15.8
2022-09-11T12:17:09.909Z,16
2022-09-11T12:31:41.097Z,15.6
2022-09-11T12:46:09.814Z,16.2
2022-09-11T13:00:39.907Z,14.9
2022-09-11T13:15:08.709Z,15.6
2022-09-11T13:29:36.218Z,15.4
2022-09-11T13:44:07.210Z,14.8
2022-09-11T13:58:33.885Z,14.7
2022-09-11T14:13:01.753Z,14.9
2022-09-11T14:27:30.331Z,14.7
2022-09-11T14:42:03.740Z,14.7
2022-09-11T14:56:33.772Z,15.4
2022-09-11T15:11:03.901Z,14.5
2022-09-11T15:25:35.530Z,15.2
2022-09-11T15:40:01.457Z,14.7
2022-09-11T15:54:28.865Z,15
2022-09-11T16:08:58.499Z,14.6
2022-09-11T16:23:27.344Z,14.9
2022-09-11T16:37:55.938Z,14.5
2022-09-11T16:52:25.033Z,14.9
2022-09-11T17:06:52.381Z,15.1
2022-09-11T17:21:21.015Z,15.1
2022-09-11T17:35:49.174Z,15.2
2022-09-11T17:50:15.388Z,15.1
2022-09-11T18:04:40.497Z,15.2
2022-09-11T18:19:08.504Z,14.9
2022-09-11T18:33:37.906Z,15.4
2022-09-11T18:48:06.737Z,15.6
2022-09-11T19:02:35.690Z,15.4
2022-09-11T19:17:03.311Z,15.5
2022-09-11T19:31:31.413Z,15.5
2022-09-11T19:46:00.744Z,15.4
2022-09-11T20:00:27.359Z,16.1
2022-09-11T20:14:54.315Z,15.8
2022-09-11T20:29:28.704Z,15.3
2022-09-11T20:44:01.173Z,15.1
2022-09-11T20:58:25.241Z,15.1
2022-09-11T21:12:53.708Z,14.9
2022-09-11T21:27:22.734Z,14.7
2022-09-11T21:41:53.643Z,14.6
2022-09-11T21:56:18.601Z,14.5
2022-09-11T22:10:49.143Z,14.4
2022-09-11T22:25:19.482Z,14.4
2022-09-11T22:39:48.435Z,14.6
2022-09-11T22:54:17.386Z,13.9
2022-09-11T23:08:44.908Z,14.4
2022-09-11T23:23:14.237Z,14.4
2022-09-11T23:37:45.921Z,13.8
2022-09-11T23:52:12.462Z,14.1
